Time;durP1;ratioP1;P1;durP2;ratioP2;P2;SDS_P1;SDS_P2;PMS_P1;PMS_P2;Temp;Humidity;BMP_temperature;BMP_pressure;BME280_temperature;BME280_humidity;BME280_pressure;Samples;Min_cycle;Max_cycle;Signal;HPM_P1;HPM_P2
2023/06/01 00:00:17;;;;;;;8.38;5.45;;;15.10;99.00;;;;;;5072968;28;20356;-83
2023/06/01 00:02:43;;;;;;;8.48;6.00;;;15.10;99.10;;;;;;5063753;28;20447;-85
2023/06/01 00:05:09;;;;;;;8.88;6.35;;;15.00;99.20;;;;;;5060118;28;20031;-85
2023/06/01 00:07:34;;;;;;;9.32;6.18;;;14.90;99.60;;;;;;5061737;28;20028;-85
2023/06/01 00:10:00;;;;;;;8.32;5.75;;;14.90;99.40;;;;;;5073545;28;20054;-85
2023/06/01 00:12:26;;;;;;;8.18;5.65;;;14.80;99.40;;;;;;5074194;28;20482;-84
2023/06/01 00:14:52;;;;;;;8.65;6.38;;;14.80;99.40;;;;;;5074530;28;20067;-86
2023/06/01 00:17:19;;;;;;;10.02;7.10;;;14.80;99.50;;;;;;5062958;28;20248;-85
2023/06/01 00:19:45;;;;;;;7.95;5.97;;;14.70;99.60;;;;;;5062360;28;20044;-85
2023/06/01 00:22:11;;;;;;;8.32;5.75;;;14.60;99.70;;;;;;5057016;28;20071;-84
2023/06/01 00:24:37;;;;;;;8.38;5.85;;;14.60;99.80;;;;;;5058055;28;20061;-85
2023/06/01 00:27:03;;;;;;;8.02;6.20;;;14.60;99.70;;;;;;5062118;28;20040;-84
2023/06/01 00:29:30;;;;;;;6.93;5.55;;;14.70;99.60;;;;;;5056914;28;20013;-85
2023/06/01 00:31:55;;;;;;;8.70;6.28;;;14.80;99.50;;;;;;5061948;28;20036;-85
2023/06/01 00:34:21;;;;;;;7.65;5.78;;;14.80;99.50;;;;;;5063019;28;20389;-85
2023/06/01 00:36:47;;;;;;;6.32;4.85;;;14.70;99.60;;;;;;5056983;28;20478;-85
2023/06/01 00:39:12;;;;;;;10.07;5.63;;;14.60;99.70;;;;;;5062516;28;20103;-86
2023/06/01 00:41:38;;;;;;;7.97;5.13;;;14.60;99.70;;;;;;5058415;28;20478;-86
2023/06/01 00:44:03;;;;;;;6.65;4.55;;;14.50;99.70;;;;;;5062170;28;20039;-85
2023/06/01 00:46:30;;;;;;;7.43;4.82;;;14.60;99.80;;;;;;5057397;28;20366;-86
2023/06/01 00:48:57;;;;;;;8.63;4.75;;;14.60;99.80;;;;;;5061767;28;20020;-86
2023/06/01 00:51:23;;;;;;;7.05;4.35;;;14.60;99.70;;;;;;5071836;28;20042;-87
2023/06/01 00:53:49;;;;;;;8.15;4.93;;;14.60;99.70;;;;;;5060522;28;20027;-85
2023/06/01 00:56:16;;;;;;;9.38;5.03;;;14.60;99.70;;;;;;5066932;28;20037;-85
2023/06/01 00:58:43;;;;;;;5.93;4.10;;;14.50;99.80;;;;;;5061993;28;20024;-85
2023/06/01 01:01:18;;;;;;;8.02;4.93;;;14.40;99.90;;;;;;5064118;28;20036;-85
2023/06/01 01:03:49;;;;;;;6.95;4.50;;;14.30;99.90;;;;;;5065039;28;20169;-85
2023/06/01 01:06:45;;;;;;;7.40;5.10;;;14.20;99.90;;;;;;5067199;28;20225;-86
2023/06/01 01:09:23;;;;;;;7.72;4.38;;;14.20;99.90;;;;;;5066121;28;20084;-85
2023/06/01 01:11:57;;;;;;;7.97;4.30;;;14.10;99.90;;;;;;5057595;28;20020;-84
2023/06/01 01:14:27;;;;;;;6.78;4.57;;;14.20;99.90;;;;;;5061589;28;20028;-85
2023/06/01 01:17:10;;;;;;;7.57;4.57;;;14.30;99.90;;;;;;5061936;28;20016;-85
2023/06/01 01:19:53;;;;;;;7.93;4.97;;;14.30;99.90;;;;;;5076306;28;20386;-86
2023/06/01 01:22:22;;;;;;;5.10;3.42;;;14.20;99.90;;;;;;5076693;28;20064;-86
2023/06/01 01:25:35;;;;;;;6.15;3.95;;;14.20;99.90;;;;;;5064705;28;20547;-85
2023/06/01 01:28:27;;;;;;;5.63;3.70;;;14.20;99.90;;;;;;5076766;28;20046;-85
2023/06/01 01:30:55;;;;;;;5.43;3.53;;;14.30;99.90;;;;;;5061620;28;20051;-84
2023/06/01 01:33:21;;;;;;;7.88;4.72;;;14.30;99.90;;;;;;5064401;28;20390;-85
2023/06/01 01:35:49;;;;;;;7.07;4.00;;;14.20;99.90;;;;;;5061793;28;20098;-85
2023/06/01 01:38:15;;;;;;;5.53;4.00;;;14.20;99.90;;;;;;5069037;28;20028;-87
2023/06/01 01:40:40;;;;;;;6.93;4.47;;;14.10;99.90;;;;;;5061879;28;20367;-85
2023/06/01 01:43:06;;;;;;;6.65;4.05;;;14.10;99.90;;;;;;5077385;28;20032;-86
2023/06/01 01:45:32;;;;;;;7.85;4.15;;;14.10;99.90;;;;;;5066514;28;20036;-85
2023/06/01 01:48:09;;;;;;;8.90;4.35;;;14.10;99.90;;;;;;5061519;28;20020;-86
2023/06/01 01:50:41;;;;;;;8.13;4.32;;;14.00;99.90;;;;;;5072266;28;20113;-85
2023/06/01 01:53:09;;;;;;;5.97;3.47;;;14.00;99.90;;;;;;5075104;28;20016;-84
2023/06/01 01:55:36;;;;;;;5.88;3.28;;;14.00;99.90;;;;;;5063298;28;20024;-86
2023/06/01 01:58:02;;;;;;;7.03;3.72;;;14.10;99.90;;;;;;5075556;28;20530;-86
2023/06/01 02:00:29;;;;;;;5.57;3.45;;;14.10;99.90;;;;;;5075038;28;20150;-85
2023/06/01 02:02:55;;;;;;;6.57;3.50;;;14.20;99.90;;;;;;5064571;28;20036;-84
2023/06/01 02:05:20;;;;;;;5.22;2.92;;;14.20;99.90;;;;;;5060130;28;20029;-85
2023/06/01 02:07:46;;;;;;;5.28;2.97;;;14.30;99.90;;;;;;5064512;28;20470;-86
2023/06/01 02:10:11;;;;;;;7.72;3.95;;;14.30;99.90;;;;;;5060478;28;20103;-86
2023/06/01 02:12:37;;;;;;;7.25;3.22;;;14.30;99.90;;;;;;5074887;28;20047;-85
2023/06/01 02:15:04;;;;;;;7.13;3.63;;;14.20;99.90;;;;;;5058403;28;20032;-84
2023/06/01 02:17:29;;;;;;;9.10;4.10;;;14.10;99.90;;;;;;5064629;28;20479;-85
2023/06/01 02:19:55;;;;;;;7.43;4.00;;;14.10;99.90;;;;;;5072469;28;20077;-86
2023/06/01 02:22:20;;;;;;;8.68;4.65;;;14.10;99.90;;;;;;5061893;28;20131;-86
2023/06/01 02:24:47;;;;;;;7.80;4.45;;;14.10;99.90;;;;;;5074439;28;20400;-85
2023/06/01 02:27:12;;;;;;;6.88;3.78;;;14.00;99.90;;;;;;5075239;28;20525;-85
2023/06/01 02:29:38;;;;;;;6.28;4.32;;;14.00;99.90;;;;;;5062657;28;20139;-86
2023/06/01 02:32:04;;;;;;;6.63;4.40;;;14.00;99.90;;;;;;5060183;28;20397;-84
2023/06/01 02:34:29;;;;;;;6.85;3.83;;;13.90;99.90;;;;;;5076079;28;20811;-85
2023/06/01 02:36:57;;;;;;;6.03;3.88;;;13.90;99.90;;;;;;5064741;28;20079;-86
2023/06/01 02:39:23;;;;;;;8.35;3.97;;;14.00;99.90;;;;;;5062727;28;20082;-84
2023/06/01 02:41:49;;;;;;;6.35;4.43;;;14.00;99.90;;;;;;5066514;28;20044;-85
2023/06/01 02:44:15;;;;;;;7.93;3.80;;;14.00;99.90;;;;;;5075088;28;20547;-85
2023/06/01 02:46:40;;;;;;;6.70;3.97;;;14.00;99.90;;;;;;5074067;28;20116;-85
2023/06/01 02:49:06;;;;;;;6.05;4.00;;;14.00;99.90;;;;;;5057335;28;20085;-86
2023/06/01 02:51:32;;;;;;;4.75;3.35;;;14.00;99.90;;;;;;5060931;28;20618;-85
2023/06/01 02:53:59;;;;;;;6.38;4.05;;;14.10;99.90;;;;;;5073828;28;20060;-85
2023/06/01 02:56:25;;;;;;;8.32;4.18;;;14.10;99.90;;;;;;5063784;28;20035;-84
2023/06/01 02:58:50;;;;;;;8.00;4.10;;;14.00;99.90;;;;;;5063594;28;20941;-84
2023/06/01 03:01:16;;;;;;;8.90;4.53;;;14.00;99.90;;;;;;5064200;28;20040;-85
2023/06/01 03:03:42;;;;;;;6.93;3.55;;;14.00;99.90;;;;;;5072339;28;20111;-85
2023/06/01 03:06:08;;;;;;;5.60;3.42;;;14.00;99.90;;;;;;5056724;28;20115;-85
2023/06/01 03:08:34;;;;;;;7.20;3.70;;;14.10;99.90;;;;;;5059136;28;20474;-85
2023/06/01 03:11:00;;;;;;;6.57;3.67;;;14.10;99.90;;;;;;5073360;28;20027;-84
2023/06/01 03:13:25;;;;;;;7.22;3.88;;;14.10;99.90;;;;;;5062943;28;20024;-84
2023/06/01 03:15:51;;;;;;;7.38;4.20;;;14.10;99.90;;;;;;5074196;28;20024;-86
2023/06/01 03:18:17;;;;;;;7.00;4.15;;;14.00;99.90;;;;;;5064598;28;20020;-86
2023/06/01 03:20:42;;;;;;;11.82;4.82;;;13.90;99.90;;;;;;5058322;28;20024;-85
2023/06/01 03:23:08;;;;;;;6.65;4.05;;;13.70;99.90;;;;;;5058243;28;20051;-85
2023/06/01 03:25:34;;;;;;;7.75;4.93;;;13.60;99.90;;;;;;5064109;28;20047;-85
2023/06/01 03:28:00;;;;;;;8.02;4.00;;;13.60;99.90;;;;;;5061666;28;20482;-85
2023/06/01 03:30:25;;;;;;;7.93;4.03;;;13.60;99.90;;;;;;5063180;28;20026;-85
2023/06/01 03:32:51;;;;;;;7.50;4.72;;;13.70;99.90;;;;;;5073165;28;20059;-85
2023/06/01 03:35:17;;;;;;;6.00;4.45;;;13.60;99.90;;;;;;5057113;28;20040;-87
2023/06/01 03:37:45;;;;;;;6.80;4.15;;;13.60;99.90;;;;;;5063042;28;20062;-86
2023/06/01 03:40:11;;;;;;;7.38;3.72;;;13.60;99.90;;;;;;5063854;28;21846;-85
2023/06/01 03:42:47;;;;;;;8.52;4.03;;;13.50;99.90;;;;;;5073298;28;20034;-85
2023/06/01 03:45:15;;;;;;;8.52;4.05;;;13.50;99.90;;;;;;5074705;28;20025;-86
2023/06/01 03:47:41;;;;;;;6.75;4.47;;;13.50;99.90;;;;;;5059622;28;20116;-85
2023/06/01 03:50:08;;;;;;;8.43;4.38;;;13.50;99.90;;;;;;5059123;28;20143;-85
2023/06/01 03:52:35;;;;;;;8.38;4.30;;;13.40;99.90;;;;;;5058309;28;20040;-84
2023/06/01 03:55:04;;;;;;;10.00;4.95;;;13.50;99.90;;;;;;5074982;28;20095;-85
2023/06/01 03:57:30;;;;;;;7.80;4.90;;;13.40;99.90;;;;;;5073696;28;20036;-84
2023/06/01 03:59:56;;;;;;;9.18;4.35;;;13.50;99.90;;;;;;5061999;28;20016;-84
2023/06/01 04:02:22;;;;;;;6.38;3.35;;;13.40;99.90;;;;;;5057556;28;20036;-84
2023/06/01 04:04:48;;;;;;;7.40;3.92;;;13.40;99.90;;;;;;5073727;28;20036;-84
2023/06/01 04:07:18;;;;;;;7.18;3.67;;;13.40;99.90;;;;;;5074313;28;20016;-83
2023/06/01 04:09:44;;;;;;;8.27;3.50;;;13.40;99.90;;;;;;5058999;28;20462;-85
2023/06/01 04:12:10;;;;;;;7.32;4.05;;;13.40;99.90;;;;;;5063646;28;20093;-83
2023/06/01 04:14:36;;;;;;;5.93;3.63;;;13.30;99.90;;;;;;5063691;28;20431;-84
2023/06/01 04:17:02;;;;;;;7.13;3.70;;;13.40;99.90;;;;;;5060064;28;20028;-86
2023/06/01 04:19:27;;;;;;;8.40;3.95;;;13.50;99.90;;;;;;5060380;28;20054;-86
2023/06/01 04:21:53;;;;;;;8.05;3.80;;;13.50;99.90;;;;;;5056798;28;20541;-84
2023/06/01 04:24:19;;;;;;;5.75;3.47;;;13.50;99.90;;;;;;5058654;28;20575;-85
2023/06/01 04:26:45;;;;;;;8.20;3.33;;;13.50;99.90;;;;;;5064294;28;20554;-84
2023/06/01 04:29:11;;;;;;;6.70;3.70;;;13.50;99.90;;;;;;5059431;28;20071;-84
2023/06/01 04:31:38;;;;;;;6.10;3.60;;;13.60;99.90;;;;;;5074683;28;20030;-84
2023/06/01 04:34:05;;;;;;;7.00;3.30;;;13.60;99.90;;;;;;5073094;28;20047;-85
2023/06/01 04:36:33;;;;;;;6.43;3.55;;;13.60;99.90;;;;;;5055992;28;20594;-85
2023/06/01 04:38:59;;;;;;;4.57;2.95;;;13.60;99.90;;;;;;5061474;28;20040;-85
2023/06/01 04:41:25;;;;;;;6.63;3.88;;;13.70;99.90;;;;;;5061044;28;20726;-86
2023/06/01 04:43:52;;;;;;;9.85;3.97;;;13.70;99.90;;;;;;5064872;28;20038;-86
2023/06/01 04:46:23;;;;;;;8.52;4.35;;;13.70;99.90;;;;;;5062554;28;20123;-85
2023/06/01 04:48:53;;;;;;;9.43;3.70;;;13.70;99.90;;;;;;5062073;28;20028;-85
2023/06/01 04:51:19;;;;;;;10.13;3.50;;;13.60;99.90;;;;;;5068377;28;20024;-85
2023/06/01 04:53:51;;;;;;;6.38;3.05;;;13.70;99.90;;;;;;5064414;28;20500;-85
2023/06/01 04:56:18;;;;;;;7.00;3.45;;;13.70;99.90;;;;;;5075953;28;20039;-85
2023/06/01 04:58:46;;;;;;;5.68;3.17;;;13.80;99.90;;;;;;5063564;28;20701;-86
2023/06/01 05:01:15;;;;;;;6.55;3.22;;;13.80;99.90;;;;;;5064067;28;20933;-85
2023/06/01 05:03:42;;;;;;;7.43;3.45;;;13.80;99.90;;;;;;5066332;28;20747;-86
2023/06/01 05:06:09;;;;;;;9.38;4.90;;;13.80;99.90;;;;;;5063686;28;20012;-84
2023/06/01 05:08:35;;;;;;;6.88;4.15;;;13.70;99.90;;;;;;5057701;28;20053;-84
2023/06/01 05:11:01;;;;;;;6.95;4.50;;;13.60;99.90;;;;;;5060544;28;20477;-88
2023/06/01 05:13:26;;;;;;;9.52;5.15;;;13.50;99.90;;;;;;5076062;28;20020;-87
2023/06/01 05:15:52;;;;;;;8.93;5.22;;;13.50;99.90;;;;;;5063819;28;20019;-86
2023/06/01 05:18:17;;;;;;;7.13;4.68;;;13.40;99.90;;;;;;5067447;28;20036;-87
2023/06/01 05:20:43;;;;;;;8.73;4.57;;;13.30;99.90;;;;;;5076419;28;20033;-87
2023/06/01 05:23:09;;;;;;;8.05;4.53;;;13.10;99.90;;;;;;5064864;28;20105;-86
2023/06/01 05:25:34;;;;;;;7.72;4.63;;;13.10;99.90;;;;;;5065626;28;20024;-86
2023/06/01 05:28:00;;;;;;;7.90;4.93;;;13.00;99.90;;;;;;5061309;28;20089;-86
2023/06/01 05:30:25;;;;;;;7.43;4.40;;;12.90;99.90;;;;;;5077345;28;20035;-86
2023/06/01 05:32:51;;;;;;;8.02;4.53;;;12.90;99.90;;;;;;5065953;28;20070;-86
2023/06/01 05:35:16;;;;;;;7.07;4.10;;;12.90;99.90;;;;;;5064466;28;20017;-87
2023/06/01 05:37:43;;;;;;;6.13;4.40;;;13.00;99.90;;;;;;5079622;28;20039;-86
2023/06/01 05:40:09;;;;;;;8.48;4.53;;;13.10;99.90;;;;;;5069576;28;20027;-87
2023/06/01 05:42:35;;;;;;;7.68;4.50;;;13.20;99.90;;;;;;5063658;28;20046;-87
2023/06/01 05:45:03;;;;;;;9.32;4.07;;;13.20;99.90;;;;;;5063899;28;20683;-86
2023/06/01 05:47:28;;;;;;;6.00;4.35;;;13.20;99.90;;;;;;5067433;28;20442;-87
2023/06/01 05:49:54;;;;;;;9.68;4.35;;;13.30;99.90;;;;;;5061083;28;20031;-86
2023/06/01 05:52:20;;;;;;;8.00;4.80;;;13.40;99.90;;;;;;5064825;28;20032;-85
2023/06/01 05:54:45;;;;;;;9.45;4.63;;;13.40;99.90;;;;;;5078155;28;20135;-89
2023/06/01 05:57:11;;;;;;;7.85;4.65;;;13.30;99.90;;;;;;5065231;28;20036;-87
2023/06/01 05:59:37;;;;;;;9.32;5.60;;;13.30;99.90;;;;;;5067569;28;20031;-87
2023/06/01 06:02:03;;;;;;;9.70;4.68;;;13.30;99.90;;;;;;5062453;28;20446;-87
2023/06/01 06:04:28;;;;;;;7.00;4.30;;;13.30;99.90;;;;;;5074470;28;20031;-86
2023/06/01 06:06:54;;;;;;;8.73;4.60;;;13.30;99.90;;;;;;5062463;28;20028;-88
2023/06/01 06:09:20;;;;;;;9.68;5.22;;;13.30;99.90;;;;;;5075999;28;20047;-87
2023/06/01 06:11:45;;;;;;;9.45;4.40;;;13.40;99.90;;;;;;5063506;28;20059;-88
2023/06/01 06:14:13;;;;;;;7.03;4.20;;;13.40;99.90;;;;;;5057859;28;20020;-85
2023/06/01 06:16:39;;;;;;;10.00;5.10;;;13.40;99.90;;;;;;5061847;28;20055;-84
2023/06/01 06:19:05;;;;;;;10.77;5.25;;;13.50;99.90;;;;;;5062072;28;20021;-85
2023/06/01 06:21:31;;;;;;;8.73;4.15;;;13.70;99.90;;;;;;5057712;28;20075;-86
2023/06/01 06:23:58;;;;;;;8.10;4.55;;;13.80;99.90;;;;;;5063752;28;20054;-86
2023/06/01 06:26:27;;;;;;;10.68;5.03;;;13.90;99.90;;;;;;5063400;28;20039;-84
2023/06/01 06:28:53;;;;;;;9.18;4.57;;;13.90;99.90;;;;;;5057599;28;20016;-86
2023/06/01 06:31:18;;;;;;;9.32;5.50;;;14.00;99.90;;;;;;5058242;28;20488;-86
2023/06/01 06:33:44;;;;;;;7.28;4.72;;;13.90;99.90;;;;;;5062884;28;20039;-86
2023/06/01 06:36:10;;;;;;;8.68;4.70;;;13.90;99.90;;;;;;5061664;28;20063;-87
2023/06/01 06:38:35;;;;;;;9.48;4.90;;;13.90;99.90;;;;;;5064430;28;20479;-84
2023/06/01 06:41:01;;;;;;;7.85;4.60;;;13.80;99.90;;;;;;5058666;28;20025;-86
2023/06/01 06:43:26;;;;;;;8.65;4.90;;;13.90;99.90;;;;;;5057645;28;20101;-84
2023/06/01 06:45:52;;;;;;;10.98;4.85;;;14.00;99.90;;;;;;5073675;28;20376;-87
2023/06/01 06:48:17;;;;;;;7.63;4.25;;;14.20;99.90;;;;;;5075024;28;20477;-86
2023/06/01 06:50:44;;;;;;;11.50;5.35;;;14.40;99.90;;;;;;5058959;28;20024;-85
2023/06/01 06:53:10;;;;;;;10.60;5.10;;;14.60;99.90;;;;;;5072966;28;20028;-86
2023/06/01 06:55:36;;;;;;;6.45;4.43;;;14.80;99.90;;;;;;5062880;28;20034;-84
2023/06/01 06:58:02;;;;;;;6.55;4.10;;;14.90;99.90;;;;;;5073984;28;20032;-85
2023/06/01 07:00:27;;;;;;;7.95;4.80;;;15.10;99.90;;;;;;5054551;28;20702;-83
2023/06/01 07:02:55;;;;;;;6.90;3.95;;;15.30;99.90;;;;;;5058057;28;20367;-85
2023/06/01 07:05:20;;;;;;;8.25;3.95;;;15.40;99.90;;;;;;5058163;28;20025;-85
2023/06/01 07:07:46;;;;;;;7.50;3.67;;;15.60;99.90;;;;;;5058544;28;20100;-85
2023/06/01 07:10:12;;;;;;;8.73;4.25;;;15.80;99.90;;;;;;5058565;28;20027;-87
2023/06/01 07:12:38;;;;;;;7.45;3.83;;;15.90;99.90;;;;;;5060354;28;20081;-85
2023/06/01 07:15:05;;;;;;;5.65;3.78;;;15.90;99.90;;;;;;5074555;28;20042;-86
2023/06/01 07:17:30;;;;;;;7.50;4.18;;;15.90;99.90;;;;;;5062172;28;20036;-86
2023/06/01 07:19:56;;;;;;;7.20;4.13;;;15.80;99.90;;;;;;5074594;28;20024;-88
2023/06/01 07:22:22;;;;;;;8.98;4.10;;;15.80;99.90;;;;;;5062414;28;20436;-85
2023/06/01 07:24:47;;;;;;;6.68;4.07;;;15.80;99.90;;;;;;5073534;28;20021;-85
2023/06/01 07:27:13;;;;;;;7.80;3.88;;;15.80;99.90;;;;;;5061297;28;20135;-84
2023/06/01 07:29:39;;;;;;;11.02;4.60;;;15.90;99.90;;;;;;5072916;28;20028;-82
2023/06/01 07:32:06;;;;;;;8.35;4.63;;;15.90;99.90;;;;;;5057089;28;20051;-86
2023/06/01 07:34:33;;;;;;;8.13;4.32;;;15.80;99.90;;;;;;5056587;28;20543;-85
2023/06/01 07:36:59;;;;;;;8.45;5.18;;;15.60;99.90;;;;;;5073766;28;20119;-85
2023/06/01 07:39:25;;;;;;;7.35;4.80;;;15.30;99.90;;;;;;5060608;28;20470;-84
2023/06/01 07:41:53;;;;;;;10.15;5.03;;;15.10;99.90;;;;;;5073370;28;20114;-83
2023/06/01 07:44:20;;;;;;;10.10;4.47;;;14.90;99.90;;;;;;5056845;28;20702;-83
2023/06/01 07:46:46;;;;;;;7.47;4.50;;;14.80;99.90;;;;;;5072526;28;20035;-84
2023/06/01 07:49:13;;;;;;;7.35;4.10;;;14.80;99.90;;;;;;5062245;28;20028;-83
2023/06/01 07:51:40;;;;;;;6.65;4.28;;;14.70;99.90;;;;;;5074424;28;20024;-83
2023/06/01 07:54:06;;;;;;;6.85;4.40;;;14.70;99.90;;;;;;5072348;28;20446;-83
2023/06/01 07:56:32;;;;;;;8.48;4.75;;;14.70;99.90;;;;;;5062161;28;20504;-84
2023/06/01 07:58:57;;;;;;;11.23;5.13;;;14.70;99.90;;;;;;5073454;28;20025;-84
2023/06/01 08:01:23;;;;;;;7.82;4.22;;;14.60;99.90;;;;;;5057726;28;20123;-83
2023/06/01 08:03:49;;;;;;;8.15;4.28;;;14.70;99.90;;;;;;5061813;28;20074;-83
2023/06/01 08:06:18;;;;;;;7.72;4.22;;;14.80;99.90;;;;;;5058328;28;20485;-84
2023/06/01 08:08:45;;;;;;;7.07;3.70;;;15.00;99.90;;;;;;5057544;28;20052;-83
2023/06/01 08:11:11;;;;;;;7.65;4.57;;;15.10;99.90;;;;;;5072938;28;20028;-84
2023/06/01 08:13:37;;;;;;;6.70;4.40;;;15.20;99.90;;;;;;5061458;28;20039;-83
2023/06/01 08:16:03;;;;;;;7.43;4.55;;;15.20;99.90;;;;;;5061233;28;20025;-84
2023/06/01 08:18:29;;;;;;;10.35;4.88;;;15.20;99.90;;;;;;5060136;28;20024;-85
2023/06/01 08:20:56;;;;;;;8.05;4.30;;;15.20;99.90;;;;;;5078131;28;20081;-83
2023/06/01 08:23:22;;;;;;;7.55;4.63;;;15.20;99.90;;;;;;5077142;28;20044;-83
2023/06/01 08:25:48;;;;;;;6.68;4.28;;;15.20;99.90;;;;;;5076244;28;21778;-82
2023/06/01 08:28:14;;;;;;;6.95;3.63;;;15.20;99.90;;;;;;5075957;28;20041;-85
2023/06/01 08:30:40;;;;;;;7.00;4.32;;;15.20;99.90;;;;;;5076893;28;20052;-84
2023/06/01 08:33:06;;;;;;;8.25;4.40;;;15.20;99.90;;;;;;5061116;28;20024;-84
2023/06/01 08:35:33;;;;;;;9.63;4.38;;;15.30;99.90;;;;;;5077020;28;20114;-84
2023/06/01 08:38:03;;;;;;;6.00;3.65;;;15.30;99.90;;;;;;5079023;28;20099;-83
2023/06/01 08:40:31;;;;;;;7.60;4.00;;;15.40;99.90;;;;;;5075269;28;20107;-82
2023/06/01 08:43:05;;;;;;;6.47;3.58;;;15.40;99.90;;;;;;5065746;28;20036;-83
2023/06/01 08:45:32;;;;;;;7.68;3.40;;;15.60;99.90;;;;;;5076046;28;20024;-82
2023/06/01 08:47:59;;;;;;;6.50;3.90;;;15.60;99.90;;;;;;5065200;28;20486;-82
2023/06/01 08:50:27;;;;;;;6.05;3.38;;;15.70;99.90;;;;;;5066077;28;20075;-84
2023/06/01 08:52:55;;;;;;;7.13;3.88;;;15.80;99.90;;;;;;5061999;28;20051;-81
2023/06/01 08:55:21;;;;;;;6.60;3.63;;;16.00;99.90;;;;;;5075705;28;20036;-82
2023/06/01 08:57:47;;;;;;;5.57;3.25;;;16.10;99.90;;;;;;5059374;28;21055;-83
2023/06/01 09:00:13;;;;;;;4.97;3.08;;;16.20;99.90;;;;;;5075063;28;20024;-81
2023/06/01 09:02:40;;;;;;;7.10;4.00;;;16.30;99.90;;;;;;5060208;28;20032;-81
2023/06/01 09:05:06;;;;;;;5.47;3.55;;;16.30;99.90;;;;;;5077092;28;20348;-81
2023/06/01 09:07:32;;;;;;;5.18;3.25;;;16.40;99.90;;;;;;5077153;28;20036;-82
2023/06/01 09:09:57;;;;;;;6.10;3.45;;;16.50;99.90;;;;;;5058807;28;20470;-82
2023/06/01 09:12:28;;;;;;;6.50;3.60;;;16.70;99.90;;;;;;5074600;28;20044;-82
2023/06/01 09:15:17;;;;;;;6.28;3.47;;;16.80;99.90;;;;;;5059566;28;20051;-82
2023/06/01 09:17:46;;;;;;;4.60;2.95;;;17.00;99.90;;;;;;5068293;28;20043;-81
2023/06/01 09:20:25;;;;;;;6.97;3.22;;;17.10;99.90;;;;;;5076848;28;20077;-83
2023/06/01 09:22:52;;;;;;;8.70;3.63;;;17.30;99.90;;;;;;5074308;28;20070;-82
2023/06/01 09:25:33;;;;;;;5.90;3.35;;;17.40;99.90;;;;;;5075230;28;20422;-81
2023/06/01 09:28:01;;;;;;;6.20;2.85;;;17.50;99.90;;;;;;5057932;28;20386;-82
2023/06/01 09:30:41;;;;;;;6.38;3.22;;;17.80;99.90;;;;;;5075854;28;20812;-83
2023/06/01 09:33:20;;;;;;;5.95;3.28;;;18.70;99.90;;;;;;5064556;28;20067;-84
2023/06/01 09:35:49;;;;;;;5.90;3.08;;;19.90;99.10;;;;;;5065625;28;20028;-83
2023/06/01 09:38:23;;;;;;;5.57;2.80;;;20.90;98.70;;;;;;5064843;28;20024;-83
2023/06/01 09:41:03;;;;;;;4.57;2.53;;;21.90;97.90;;;;;;5062963;28;20413;-83
2023/06/01 09:43:29;;;;;;;5.40;2.40;;;22.60;97.40;;;;;;5060315;28;20027;-83
2023/06/01 09:46:09;;;;;;;5.20;2.50;;;23.20;97.00;;;;;;5073993;28;20027;-84
2023/06/01 09:48:35;;;;;;;5.85;2.25;;;23.90;96.70;;;;;;5060905;28;20028;-84
2023/06/01 09:51:00;;;;;;;6.90;2.90;;;24.30;95.90;;;;;;5076984;28;20085;-84
2023/06/01 09:53:26;;;;;;;6.55;2.53;;;24.60;95.30;;;;;;5064941;28;20016;-83
2023/06/01 09:55:59;;;;;;;5.57;2.60;;;24.80;94.80;;;;;;5058357;28;20143;-84
2023/06/01 09:58:25;;;;;;;5.38;2.42;;;25.10;94.80;;;;;;5074456;28;20190;-83
2023/06/01 10:00:51;;;;;;;5.47;2.53;;;25.60;94.70;;;;;;5074955;28;20054;-83
2023/06/01 10:03:19;;;;;;;6.10;2.72;;;26.10;94.30;;;;;;5064621;28;20035;-84
2023/06/01 10:05:46;;;;;;;3.55;2.10;;;26.40;93.80;;;;;;5060562;28;20029;-85
2023/06/01 10:08:13;;;;;;;4.18;2.55;;;26.60;93.50;;;;;;5074404;28;20473;-84
2023/06/01 10:10:42;;;;;;;6.18;2.70;;;26.90;92.70;;;;;;5064229;28;20151;-83
2023/06/01 10:13:08;;;;;;;4.95;2.40;;;26.90;92.20;;;;;;5074089;28;20093;-83
2023/06/01 10:15:33;;;;;;;3.97;2.33;;;26.90;91.70;;;;;;5074080;28;20029;-83
2023/06/01 10:18:00;;;;;;;3.92;2.28;;;27.00;91.80;;;;;;5064837;28;20063;-83
2023/06/01 10:20:26;;;;;;;5.20;2.50;;;27.10;91.40;;;;;;5060492;28;20028;-84
2023/06/01 10:22:52;;;;;;;5.03;2.53;;;27.10;90.80;;;;;;5063482;28;20433;-84
2023/06/01 10:25:22;;;;;;;3.95;2.13;;;27.10;90.60;;;;;;5058915;28;20830;-83
2023/06/01 10:28:03;;;;;;;4.72;2.20;;;27.20;90.50;;;;;;5076178;28;20493;-83
2023/06/01 10:30:29;;;;;;;5.78;2.53;;;27.60;90.30;;;;;;5058779;28;20035;-85
2023/06/01 10:32:55;;;;;;;4.68;2.30;;;27.70;90.00;;;;;;5074787;28;20032;-84
2023/06/01 10:35:26;;;;;;;4.75;2.33;;;27.90;89.20;;;;;;5058835;28;20093;-84
2023/06/01 10:38:09;;;;;;;4.25;2.65;;;28.10;88.80;;;;;;5064102;28;20143;-84
2023/06/01 10:40:39;;;;;;;4.80;2.80;;;28.20;87.00;;;;;;5073859;28;20465;-84
2023/06/01 10:43:08;;;;;;;6.63;2.67;;;28.10;87.10;;;;;;5066044;28;20491;-84
2023/06/01 10:45:33;;;;;;;5.55;2.63;;;28.20;86.60;;;;;;5077025;28;20039;-84
2023/06/01 10:48:03;;;;;;;4.45;2.50;;;28.20;86.40;;;;;;5058390;28;20020;-83
2023/06/01 10:50:29;;;;;;;5.20;2.45;;;28.10;86.40;;;;;;5075193;28;20055;-84
2023/06/01 10:52:55;;;;;;;3.88;2.33;;;28.20;86.50;;;;;;5057051;28;20050;-82
2023/06/01 10:55:25;;;;;;;4.13;2.40;;;28.30;86.10;;;;;;5057211;28;20038;-83
2023/06/01 10:57:52;;;;;;;5.20;2.55;;;28.50;85.20;;;;;;5057384;28;20101;-83
2023/06/01 11:00:28;;;;;;;4.28;2.38;;;28.60;85.30;;;;;;5062008;28;20658;-83
2023/06/01 11:03:02;;;;;;;5.80;2.47;;;28.90;84.30;;;;;;5058610;28;20020;-83
2023/06/01 11:05:46;;;;;;;4.97;2.28;;;28.80;83.50;;;;;;5074481;28;20134;-84
2023/06/01 11:08:23;;;;;;;4.15;2.40;;;29.00;83.40;;;;;;5057791;28;20516;-83
2023/06/01 11:10:52;;;;;;;5.20;2.33;;;29.10;83.20;;;;;;5057828;28;20766;-86
2023/06/01 11:13:19;;;;;;;5.03;2.35;;;29.20;83.20;;;;;;5074218;28;20037;-83
2023/06/01 11:16:03;;;;;;;6.00;2.70;;;29.30;82.10;;;;;;5057874;28;20020;-83
2023/06/01 11:18:41;;;;;;;6.05;2.78;;;29.40;82.10;;;;;;5074379;28;20142;-82
2023/06/01 11:21:10;;;;;;;5.30;2.80;;;29.60;81.50;;;;;;5073883;28;20031;-82
2023/06/01 11:23:38;;;;;;;5.28;2.45;;;29.60;81.00;;;;;;5062854;28;20048;-82
2023/06/01 11:26:07;;;;;;;4.13;2.55;;;29.70;81.00;;;;;;5072475;28;20024;-82
2023/06/01 11:28:33;;;;;;;6.18;2.80;;;29.70;80.40;;;;;;5073521;28;20084;-82
2023/06/01 11:31:02;;;;;;;5.93;2.80;;;29.70;80.00;;;;;;5056169;28;20557;-83
2023/06/01 11:33:33;;;;;;;5.60;2.60;;;29.70;79.50;;;;;;5063707;28;20028;-83
2023/06/01 11:36:05;;;;;;;3.70;2.05;;;29.80;79.30;;;;;;5057949;28;20470;-83
2023/06/01 11:38:35;;;;;;;5.40;2.58;;;29.80;79.40;;;;;;5072659;28;20494;-83
2023/06/01 11:41:02;;;;;;;6.40;2.60;;;30.00;79.10;;;;;;5054744;28;20032;-82
2023/06/01 11:43:31;;;;;;;4.43;2.65;;;30.10;78.50;;;;;;5072219;28;20031;-84
2023/06/01 11:46:05;;;;;;;5.13;2.53;;;30.30;78.10;;;;;;5072065;28;20020;-83
2023/06/01 11:48:31;;;;;;;4.75;2.33;;;30.40;77.40;;;;;;5073453;28;20020;-82
2023/06/01 11:50:58;;;;;;;5.75;2.83;;;30.40;77.80;;;;;;5072973;28;20833;-82
2023/06/01 11:53:24;;;;;;;3.35;2.30;;;30.60;77.10;;;;;;5072754;28;20155;-83
2023/06/01 11:55:54;;;;;;;4.97;2.70;;;30.70;76.90;;;;;;5062100;28;20075;-82
2023/06/01 11:58:24;;;;;;;5.80;2.30;;;30.80;76.80;;;;;;5079631;28;20035;-82
2023/06/01 12:00:50;;;;;;;6.18;2.55;;;30.80;76.60;;;;;;5071636;28;20525;-83
2023/06/01 12:03:19;;;;;;;4.18;2.38;;;30.80;76.50;;;;;;5072128;28;20436;-83
2023/06/01 12:05:48;;;;;;;6.38;2.80;;;30.80;76.30;;;;;;5059597;28;20032;-84
2023/06/01 12:08:24;;;;;;;4.15;2.53;;;30.80;75.80;;;;;;5071645;28;20031;-82
2023/06/01 12:10:52;;;;;;;5.38;2.67;;;30.70;75.70;;;;;;5072338;28;20040;-84
2023/06/01 12:13:19;;;;;;;5.05;2.63;;;30.40;75.80;;;;;;5072265;28;20094;-83
2023/06/01 12:15:46;;;;;;;3.50;2.25;;;30.40;75.80;;;;;;5057252;28;20471;-83
2023/06/01 12:18:12;;;;;;;4.97;2.13;;;30.40;75.70;;;;;;5062541;28;20036;-83
2023/06/01 12:20:41;;;;;;;3.97;2.30;;;30.30;76.40;;;;;;5058481;28;20016;-83
2023/06/01 12:23:19;;;;;;;6.60;2.63;;;30.30;75.80;;;;;;5055737;28;20076;-83
2023/06/01 12:25:57;;;;;;;4.45;1.95;;;30.40;75.50;;;;;;5056278;28;20055;-82
2023/06/01 12:28:24;;;;;;;3.97;2.10;;;30.50;75.60;;;;;;5065980;28;20032;-83
2023/06/01 12:31:12;;;;;;;6.40;2.33;;;30.60;75.30;;;;;;5075370;28;20016;-83
2023/06/01 12:33:38;;;;;;;5.68;2.25;;;30.70;75.10;;;;;;5065023;28;20060;-83
2023/06/01 12:36:06;;;;;;;4.00;2.20;;;30.80;75.20;;;;;;5076594;28;20025;-83
2023/06/01 12:39:01;;;;;;;5.00;2.50;;;30.90;75.00;;;;;;5064127;28;20028;-82
2023/06/01 12:41:28;;;;;;;4.50;2.20;;;31.10;75.00;;;;;;5073076;28;20032;-83
2023/06/01 12:43:54;;;;;;;5.15;2.00;;;31.00;74.70;;;;;;5072104;28;20154;-84
2023/06/01 12:46:23;;;;;;;4.40;2.20;;;31.00;74.20;;;;;;5061221;28;20031;-84
2023/06/01 12:48:51;;;;;;;4.30;2.22;;;31.00;74.10;;;;;;5072515;28;20017;-83